createdAt,value
2019-03-08T00:08:29.180Z,6.00
2019-03-08T00:19:10.213Z,6.00
2019-03-08T00:29:52.481Z,6.50
2019-03-08T00:40:33.338Z,6.50
2019-03-08T00:51:17.923Z,5.00
2019-03-08T01:02:02.928Z,4.70
2019-03-08T01:12:45.894Z,5.50
2019-03-08T01:23:26.969Z,3.70
2019-03-08T01:34:09.609Z,7.00
2019-03-08T01:44:51.804Z,5.70
2019-03-08T01:55:32.696Z,8.30
2019-03-08T02:06:16.538Z,8.40
2019-03-08T02:17:00.528Z,7.20
2019-03-08T02:27:43.985Z,4.80
2019-03-08T02:38:27.500Z,6.00
2019-03-08T02:49:07.778Z,5.90
2019-03-08T02:59:52.349Z,6.20
2019-03-08T03:10:35.699Z,8.30
2019-03-08T03:21:20.655Z,5.90
2019-03-08T03:32:03.925Z,6.20
2019-03-08T03:42:46.383Z,6.90
2019-03-08T03:53:27.167Z,8.00
2019-03-08T04:04:10.742Z,7.90
2019-03-08T04:14:46.508Z,5.50
2019-03-08T04:25:30.125Z,5.80
2019-03-08T04:36:13.484Z,6.70
2019-03-08T04:46:57.206Z,8.10
2019-03-08T04:57:41.622Z,5.40
2019-03-08T05:08:24.747Z,5.50
2019-03-08T05:19:06.776Z,4.20
2019-03-08T05:29:49.362Z,5.40
2019-03-08T05:40:27.400Z,3.30
2019-03-08T05:51:11.780Z,5.20
2019-03-08T06:01:54.905Z,3.80
2019-03-08T06:12:36.102Z,4.70
2019-03-08T06:23:19.918Z,6.60
2019-03-08T06:33:56.848Z,7.10
2019-03-08T06:44:36.515Z,5.40
2019-03-08T06:55:18.953Z,7.10
2019-03-08T07:06:03.307Z,4.50
2019-03-08T07:16:43.472Z,4.20
2019-03-08T07:27:28.599Z,5.40
2019-03-08T07:38:11.984Z,5.20
2019-03-08T07:48:53.615Z,4.30
2019-03-08T07:59:31.856Z,3.50
2019-03-08T08:10:13.280Z,2.20
2019-03-08T08:20:51.806Z,9.50
2019-03-08T08:31:35.353Z,9.00
2019-03-08T08:42:11.625Z,9.60
2019-03-08T08:52:53.490Z,35.30
2019-03-08T09:03:32.654Z,18.80
2019-03-08T09:14:10.655Z,12.70
2019-03-08T09:24:46.528Z,18.00
2019-03-08T09:35:26.578Z,15.10
2019-03-08T09:46:12.211Z,18.50
2019-03-08T09:56:46.192Z,17.60
2019-03-08T10:07:25.992Z,17.90
2019-03-08T10:18:08.223Z,18.80
2019-03-08T10:28:45.148Z,15.30
2019-03-08T10:39:27.936Z,12.80
2019-03-08T10:50:07.473Z,12.60
2019-03-08T11:00:48.739Z,11.00
2019-03-08T11:11:29.000Z,8.00
2019-03-08T11:22:08.933Z,9.30
2019-03-08T11:32:39.492Z,8.40
2019-03-08T11:43:15.632Z,8.80
2019-03-08T11:53:56.218Z,12.40
2019-03-08T12:04:22.318Z,8.40
2019-03-08T12:15:02.641Z,8.40
2019-03-08T20:07:13.085Z,11.70
2019-03-08T20:17:56.364Z,11.80
2019-03-08T20:28:37.871Z,15.90
2019-03-08T20:39:18.687Z,9.70
2019-03-08T20:50:01.921Z,12.00
2019-03-08T21:00:43.103Z,10.80
2019-03-08T21:11:27.536Z,10.40
2019-03-08T21:22:12.135Z,9.50
2019-03-08T21:32:46.611Z,13.00
2019-03-08T21:43:28.366Z,11.00
2019-03-08T21:54:03.454Z,10.40
2019-03-08T22:04:40.110Z,10.20
2019-03-08T22:15:12.276Z,12.90
2019-03-08T22:25:47.426Z,16.00
2019-03-08T22:36:27.255Z,10.40
2019-03-08T22:47:01.603Z,10.60
2019-03-08T22:57:43.792Z,10.50
2019-03-08T23:08:26.883Z,8.60
2019-03-08T23:19:07.887Z,7.50
2019-03-08T23:29:51.808Z,8.10
2019-03-08T23:40:34.550Z,8.70
2019-03-08T23:51:18.619Z,7.30
